KSCK

Stockton Metropolitan Airport

Stockton, California, USA
METAR KSCK 151855Z AUTO 21008KT 10SM BKN060 BKN075 11/05 A3000 RMK AO2 RAE05 SLP158 P0000 T01110050
Observed Flight Rules
Feb-15 @ 18:55 UTC (58 minutes ago) Visual Flight Rules
Wind Visibility Clouds
210° at 8 knots 10 miles
  • Broken at 6,000' AGL
  • Broken at 7,500' AGL
Temperatures Readings Precipitation
Current 11°C / 52°F
Dewpoint 5°C / 41°F
Humidity 67%
Altimeter 30" Hg
Pressure 1015.8 hPa
Elevation 10
Current Rain 0.01
METAR KSCK 151855Z AUTO 21008KT 10SM BKN060 BKN075 11/05 A3000 RMK AO2 RAE05 SLP158 P0000 T01110050
Observed Flight Rules
Feb-15 @ 18:55 UTC
(58 minutes ago)
VFR
Wind Visibility
210° at 8 knots 10 miles
Clouds
  • Broken at 6,000' AGL
  • Broken at 7,500' AGL
Temperature Dewpoint
11°C / 52°F 5°C / 41°F
Humidity Altimeter Pressure
67% 30" Hg 1015.8 hPa
Current Rain
0.01